sensor_id;sensor_type;location;lat;lon;timestamp;P1;durP1;ratioP1;P2;durP2;ratioP2
2213;SDS011;1113;42.018;23.986;2022-10-12T00:02:23;82.70;;;55.43;;
2213;SDS011;1113;42.018;23.986;2022-10-12T00:04:50;77.73;;;57.30;;
2213;SDS011;1113;42.018;23.986;2022-10-12T00:07:17;70.93;;;52.07;;
2213;SDS011;1113;42.018;23.986;2022-10-12T00:09:44;69.90;;;50.83;;
2213;SDS011;1113;42.018;23.986;2022-10-12T00:12:10;72.37;;;52.50;;
2213;SDS011;1113;42.018;23.986;2022-10-12T00:14:37;74.53;;;52.33;;
2213;SDS011;1113;42.018;23.986;2022-10-12T00:17:04;72.90;;;52.10;;
2213;SDS011;1113;42.018;23.986;2022-10-12T00:19:32;72.20;;;50.50;;
2213;SDS011;1113;42.018;23.986;2022-10-12T00:21:59;79.97;;;55.20;;
2213;SDS011;1113;42.018;23.986;2022-10-12T00:24:26;71.63;;;52.40;;
2213;SDS011;1113;42.018;23.986;2022-10-12T00:26:53;74.10;;;52.30;;
2213;SDS011;1113;42.018;23.986;2022-10-12T00:29:19;75.87;;;53.13;;
2213;SDS011;1113;42.018;23.986;2022-10-12T00:31:46;81.80;;;56.70;;
2213;SDS011;1113;42.018;23.986;2022-10-12T00:34:13;76.37;;;56.47;;
2213;SDS011;1113;42.018;23.986;2022-10-12T00:36:41;71.43;;;53.23;;
2213;SDS011;1113;42.018;23.986;2022-10-12T00:39:08;67.17;;;49.47;;
2213;SDS011;1113;42.018;23.986;2022-10-12T00:41:37;70.97;;;53.07;;
2213;SDS011;1113;42.018;23.986;2022-10-12T00:47:01;103.47;;;75.47;;
2213;SDS011;1113;42.018;23.986;2022-10-12T00:49:33;77.17;;;55.97;;
2213;SDS011;1113;42.018;23.986;2022-10-12T00:52:04;67.67;;;50.97;;
2213;SDS011;1113;42.018;23.986;2022-10-12T00:54:36;73.93;;;54.67;;
2213;SDS011;1113;42.018;23.986;2022-10-12T00:57:06;62.73;;;48.33;;
2213;SDS011;1113;42.018;23.986;2022-10-12T00:59:37;65.33;;;48.40;;
2213;SDS011;1113;42.018;23.986;2022-10-12T01:02:09;65.90;;;48.27;;
2213;SDS011;1113;42.018;23.986;2022-10-12T01:04:37;64.00;;;47.10;;
2213;SDS011;1113;42.018;23.986;2022-10-12T01:07:06;65.70;;;50.47;;
2213;SDS011;1113;42.018;23.986;2022-10-12T01:09:33;63.37;;;49.17;;
2213;SDS011;1113;42.018;23.986;2022-10-12T01:12:00;69.40;;;48.97;;
2213;SDS011;1113;42.018;23.986;2022-10-12T01:14:30;64.83;;;50.33;;
2213;SDS011;1113;42.018;23.986;2022-10-12T01:16:58;66.60;;;50.50;;
2213;SDS011;1113;42.018;23.986;2022-10-12T01:19:50;67.77;;;50.57;;
2213;SDS011;1113;42.018;23.986;2022-10-12T01:22:39;64.13;;;47.87;;
2213;SDS011;1113;42.018;23.986;2022-10-12T01:25:13;66.03;;;49.50;;
2213;SDS011;1113;42.018;23.986;2022-10-12T01:27:54;72.40;;;49.40;;
2213;SDS011;1113;42.018;23.986;2022-10-12T01:30:30;57.97;;;42.23;;
2213;SDS011;1113;42.018;23.986;2022-10-12T01:33:05;43.07;;;31.67;;
2213;SDS011;1113;42.018;23.986;2022-10-12T01:35:41;48.13;;;36.77;;
2213;SDS011;1113;42.018;23.986;2022-10-12T01:38:16;55.37;;;39.50;;
2213;SDS011;1113;42.018;23.986;2022-10-12T01:40:51;52.77;;;37.40;;
2213;SDS011;1113;42.018;23.986;2022-10-12T01:43:22;42.27;;;31.13;;
2213;SDS011;1113;42.018;23.986;2022-10-12T01:46:03;44.57;;;33.17;;
2213;SDS011;1113;42.018;23.986;2022-10-12T01:48:31;46.53;;;35.60;;
2213;SDS011;1113;42.018;23.986;2022-10-12T01:50:59;47.77;;;35.50;;
2213;SDS011;1113;42.018;23.986;2022-10-12T01:53:29;48.63;;;34.77;;
2213;SDS011;1113;42.018;23.986;2022-10-12T01:56:04;46.30;;;33.33;;
2213;SDS011;1113;42.018;23.986;2022-10-12T01:58:40;47.43;;;33.70;;
2213;SDS011;1113;42.018;23.986;2022-10-12T02:01:23;49.23;;;36.40;;
2213;SDS011;1113;42.018;23.986;2022-10-12T02:03:59;48.20;;;36.30;;
2213;SDS011;1113;42.018;23.986;2022-10-12T02:06:31;45.83;;;32.53;;
2213;SDS011;1113;42.018;23.986;2022-10-12T02:09:03;45.87;;;33.57;;
2213;SDS011;1113;42.018;23.986;2022-10-12T02:11:33;43.90;;;33.57;;
2213;SDS011;1113;42.018;23.986;2022-10-12T02:14:05;45.97;;;33.73;;
2213;SDS011;1113;42.018;23.986;2022-10-12T02:16:38;37.83;;;29.07;;
2213;SDS011;1113;42.018;23.986;2022-10-12T02:19:10;44.93;;;33.77;;
2213;SDS011;1113;42.018;23.986;2022-10-12T02:21:39;46.40;;;33.63;;
2213;SDS011;1113;42.018;23.986;2022-10-12T02:24:06;44.23;;;32.87;;
2213;SDS011;1113;42.018;23.986;2022-10-12T02:26:36;43.67;;;32.97;;
2213;SDS011;1113;42.018;23.986;2022-10-12T02:29:09;46.03;;;34.60;;
2213;SDS011;1113;42.018;23.986;2022-10-12T02:31:41;42.20;;;32.23;;
2213;SDS011;1113;42.018;23.986;2022-10-12T02:34:14;39.77;;;30.00;;
2213;SDS011;1113;42.018;23.986;2022-10-12T02:36:45;40.73;;;31.73;;
2213;SDS011;1113;42.018;23.986;2022-10-12T02:39:17;50.00;;;35.47;;
2213;SDS011;1113;42.018;23.986;2022-10-12T02:41:48;41.57;;;32.20;;
2213;SDS011;1113;42.018;23.986;2022-10-12T02:44:18;43.50;;;32.83;;
2213;SDS011;1113;42.018;23.986;2022-10-12T02:46:50;45.27;;;32.90;;
2213;SDS011;1113;42.018;23.986;2022-10-12T02:49:19;46.80;;;34.10;;
2213;SDS011;1113;42.018;23.986;2022-10-12T02:51:50;47.10;;;35.90;;
2213;SDS011;1113;42.018;23.986;2022-10-12T02:54:17;49.70;;;37.50;;
2213;SDS011;1113;42.018;23.986;2022-10-12T02:56:44;45.27;;;35.80;;
2213;SDS011;1113;42.018;23.986;2022-10-12T02:59:12;52.07;;;39.40;;
2213;SDS011;1113;42.018;23.986;2022-10-12T03:01:39;55.60;;;36.40;;
2213;SDS011;1113;42.018;23.986;2022-10-12T03:04:08;44.97;;;34.40;;
2213;SDS011;1113;42.018;23.986;2022-10-12T03:06:35;50.17;;;34.33;;
2213;SDS011;1113;42.018;23.986;2022-10-12T03:09:02;45.27;;;35.03;;
2213;SDS011;1113;42.018;23.986;2022-10-12T03:11:29;46.83;;;34.67;;
2213;SDS011;1113;42.018;23.986;2022-10-12T03:13:56;48.47;;;35.30;;
2213;SDS011;1113;42.018;23.986;2022-10-12T03:16:23;52.70;;;38.40;;
2213;SDS011;1113;42.018;23.986;2022-10-12T03:18:50;51.07;;;35.90;;
2213;SDS011;1113;42.018;23.986;2022-10-12T03:21:19;49.13;;;37.50;;
2213;SDS011;1113;42.018;23.986;2022-10-12T03:23:46;53.17;;;35.97;;
2213;SDS011;1113;42.018;23.986;2022-10-12T03:26:12;51.07;;;35.00;;
2213;SDS011;1113;42.018;23.986;2022-10-12T03:28:39;53.50;;;37.50;;
2213;SDS011;1113;42.018;23.986;2022-10-12T03:31:06;47.10;;;34.87;;
2213;SDS011;1113;42.018;23.986;2022-10-12T03:33:33;47.70;;;34.40;;
2213;SDS011;1113;42.018;23.986;2022-10-12T03:35:59;44.87;;;32.80;;
2213;SDS011;1113;42.018;23.986;2022-10-12T03:38:28;50.80;;;35.97;;
2213;SDS011;1113;42.018;23.986;2022-10-12T03:40:54;52.63;;;38.67;;
2213;SDS011;1113;42.018;23.986;2022-10-12T03:43:21;50.90;;;39.03;;
2213;SDS011;1113;42.018;23.986;2022-10-12T03:45:48;52.90;;;39.40;;
2213;SDS011;1113;42.018;23.986;2022-10-12T03:48:16;53.37;;;39.70;;
2213;SDS011;1113;42.018;23.986;2022-10-12T03:50:47;50.00;;;37.90;;
2213;SDS011;1113;42.018;23.986;2022-10-12T03:53:14;56.03;;;39.50;;
2213;SDS011;1113;42.018;23.986;2022-10-12T03:55:43;60.13;;;42.57;;
2213;SDS011;1113;42.018;23.986;2022-10-12T03:58:10;58.70;;;46.17;;
2213;SDS011;1113;42.018;23.986;2022-10-12T04:00:37;56.07;;;39.47;;
2213;SDS011;1113;42.018;23.986;2022-10-12T04:03:04;57.43;;;42.07;;
2213;SDS011;1113;42.018;23.986;2022-10-12T04:05:31;61.70;;;44.13;;
2213;SDS011;1113;42.018;23.986;2022-10-12T04:07:58;52.87;;;40.67;;
2213;SDS011;1113;42.018;23.986;2022-10-12T04:10:25;58.70;;;42.00;;
2213;SDS011;1113;42.018;23.986;2022-10-12T04:12:53;57.23;;;40.00;;
2213;SDS011;1113;42.018;23.986;2022-10-12T04:15:20;45.00;;;35.77;;
2213;SDS011;1113;42.018;23.986;2022-10-12T04:17:46;59.73;;;40.30;;
2213;SDS011;1113;42.018;23.986;2022-10-12T04:20:13;53.90;;;40.27;;
2213;SDS011;1113;42.018;23.986;2022-10-12T04:22:40;48.50;;;38.50;;
2213;SDS011;1113;42.018;23.986;2022-10-12T04:25:08;52.73;;;38.80;;
2213;SDS011;1113;42.018;23.986;2022-10-12T04:27:36;46.53;;;37.60;;
2213;SDS011;1113;42.018;23.986;2022-10-12T04:30:05;45.07;;;37.13;;
2213;SDS011;1113;42.018;23.986;2022-10-12T04:32:32;45.53;;;35.90;;
2213;SDS011;1113;42.018;23.986;2022-10-12T04:34:59;42.57;;;35.33;;
2213;SDS011;1113;42.018;23.986;2022-10-12T04:37:26;45.90;;;37.00;;
2213;SDS011;1113;42.018;23.986;2022-10-12T04:39:53;45.90;;;36.27;;
2213;SDS011;1113;42.018;23.986;2022-10-12T04:42:20;45.33;;;33.27;;
2213;SDS011;1113;42.018;23.986;2022-10-12T04:44:47;43.63;;;34.70;;
2213;SDS011;1113;42.018;23.986;2022-10-12T04:47:15;45.00;;;35.77;;
2213;SDS011;1113;42.018;23.986;2022-10-12T04:49:42;45.47;;;34.40;;
2213;SDS011;1113;42.018;23.986;2022-10-12T04:52:08;44.87;;;35.17;;
2213;SDS011;1113;42.018;23.986;2022-10-12T04:54:35;49.07;;;36.00;;
2213;SDS011;1113;42.018;23.986;2022-10-12T04:57:02;48.93;;;37.37;;
2213;SDS011;1113;42.018;23.986;2022-10-12T04:59:29;46.70;;;37.00;;
2213;SDS011;1113;42.018;23.986;2022-10-12T05:01:56;47.50;;;36.77;;
2213;SDS011;1113;42.018;23.986;2022-10-12T05:04:24;51.63;;;38.03;;
2213;SDS011;1113;42.018;23.986;2022-10-12T05:06:51;47.90;;;36.13;;
2213;SDS011;1113;42.018;23.986;2022-10-12T05:09:18;54.93;;;44.83;;
2213;SDS011;1113;42.018;23.986;2022-10-12T05:11:44;47.63;;;36.93;;
2213;SDS011;1113;42.018;23.986;2022-10-12T05:14:11;55.17;;;41.60;;
2213;SDS011;1113;42.018;23.986;2022-10-12T05:16:38;59.90;;;47.03;;
2213;SDS011;1113;42.018;23.986;2022-10-12T05:19:05;67.37;;;48.23;;
2213;SDS011;1113;42.018;23.986;2022-10-12T05:21:33;64.50;;;50.53;;
2213;SDS011;1113;42.018;23.986;2022-10-12T05:24:00;71.03;;;51.40;;
2213;SDS011;1113;42.018;23.986;2022-10-12T05:26:27;60.30;;;47.50;;
2213;SDS011;1113;42.018;23.986;2022-10-12T05:28:54;83.80;;;57.90;;
2213;SDS011;1113;42.018;23.986;2022-10-12T05:31:20;79.70;;;55.10;;
2213;SDS011;1113;42.018;23.986;2022-10-12T05:33:47;70.10;;;53.80;;
2213;SDS011;1113;42.018;23.986;2022-10-12T05:36:14;70.27;;;50.00;;
2213;SDS011;1113;42.018;23.986;2022-10-12T05:38:42;69.10;;;50.27;;
2213;SDS011;1113;42.018;23.986;2022-10-12T05:41:09;78.13;;;53.20;;
2213;SDS011;1113;42.018;23.986;2022-10-12T05:43:36;70.57;;;47.53;;
2213;SDS011;1113;42.018;23.986;2022-10-12T05:46:02;67.93;;;48.53;;
2213;SDS011;1113;42.018;23.986;2022-10-12T05:48:29;72.70;;;51.00;;
2213;SDS011;1113;42.018;23.986;2022-10-12T05:50:57;77.33;;;53.40;;
2213;SDS011;1113;42.018;23.986;2022-10-12T05:53:24;78.27;;;51.90;;
2213;SDS011;1113;42.018;23.986;2022-10-12T05:55:54;84.87;;;56.83;;
2213;SDS011;1113;42.018;23.986;2022-10-12T05:58:22;62.77;;;45.80;;
2213;SDS011;1113;42.018;23.986;2022-10-12T06:00:50;60.10;;;44.30;;
2213;SDS011;1113;42.018;23.986;2022-10-12T06:03:17;64.53;;;46.30;;
2213;SDS011;1113;42.018;23.986;2022-10-12T06:05:45;57.57;;;42.53;;
2213;SDS011;1113;42.018;23.986;2022-10-12T06:08:12;53.10;;;40.27;;
2213;SDS011;1113;42.018;23.986;2022-10-12T06:10:42;49.77;;;36.47;;
2213;SDS011;1113;42.018;23.986;2022-10-12T06:13:12;56.50;;;39.07;;
2213;SDS011;1113;42.018;23.986;2022-10-12T06:15:43;53.70;;;39.13;;
2213;SDS011;1113;42.018;23.986;2022-10-12T06:18:10;47.03;;;35.07;;
2213;SDS011;1113;42.018;23.986;2022-10-12T06:20:37;48.00;;;34.50;;
2213;SDS011;1113;42.018;23.986;2022-10-12T06:23:03;47.23;;;33.70;;
2213;SDS011;1113;42.018;23.986;2022-10-12T06:25:30;45.67;;;30.80;;
2213;SDS011;1113;42.018;23.986;2022-10-12T06:27:57;43.73;;;31.00;;
2213;SDS011;1113;42.018;23.986;2022-10-12T06:30:25;52.43;;;38.07;;
2213;SDS011;1113;42.018;23.986;2022-10-12T06:32:52;47.40;;;34.60;;
2213;SDS011;1113;42.018;23.986;2022-10-12T06:35:19;47.13;;;35.37;;
2213;SDS011;1113;42.018;23.986;2022-10-12T06:37:47;78.27;;;59.17;;
2213;SDS011;1113;42.018;23.986;2022-10-12T06:40:15;64.60;;;42.90;;
2213;SDS011;1113;42.018;23.986;2022-10-12T06:42:42;48.07;;;35.80;;
2213;SDS011;1113;42.018;23.986;2022-10-12T06:45:09;47.37;;;37.00;;
2213;SDS011;1113;42.018;23.986;2022-10-12T06:47:38;65.13;;;46.37;;
2213;SDS011;1113;42.018;23.986;2022-10-12T06:50:05;53.23;;;35.73;;
2213;SDS011;1113;42.018;23.986;2022-10-12T06:52:37;47.93;;;35.20;;
2213;SDS011;1113;42.018;23.986;2022-10-12T06:55:04;54.37;;;34.27;;
2213;SDS011;1113;42.018;23.986;2022-10-12T06:57:32;45.20;;;31.97;;
2213;SDS011;1113;42.018;23.986;2022-10-12T06:59:59;43.53;;;30.10;;
2213;SDS011;1113;42.018;23.986;2022-10-12T07:02:25;49.87;;;35.20;;
2213;SDS011;1113;42.018;23.986;2022-10-12T07:04:54;51.20;;;35.03;;
2213;SDS011;1113;42.018;23.986;2022-10-12T07:07:21;52.90;;;36.17;;
2213;SDS011;1113;42.018;23.986;2022-10-12T07:09:48;54.43;;;36.70;;
2213;SDS011;1113;42.018;23.986;2022-10-12T07:12:14;58.60;;;38.40;;
2213;SDS011;1113;42.018;23.986;2022-10-12T07:14:41;52.43;;;35.57;;
2213;SDS011;1113;42.018;23.986;2022-10-12T07:17:08;44.57;;;31.00;;
2213;SDS011;1113;42.018;23.986;2022-10-12T07:19:35;46.83;;;31.37;;
2213;SDS011;1113;42.018;23.986;2022-10-12T07:22:03;43.20;;;30.20;;
2213;SDS011;1113;42.018;23.986;2022-10-12T07:24:30;41.73;;;29.43;;
2213;SDS011;1113;42.018;23.986;2022-10-12T07:27:01;36.40;;;26.63;;
2213;SDS011;1113;42.018;23.986;2022-10-12T07:29:29;39.10;;;27.77;;
2213;SDS011;1113;42.018;23.986;2022-10-12T07:31:57;32.10;;;25.17;;
2213;SDS011;1113;42.018;23.986;2022-10-12T07:34:23;37.00;;;27.60;;
2213;SDS011;1113;42.018;23.986;2022-10-12T07:36:50;38.83;;;29.33;;
2213;SDS011;1113;42.018;23.986;2022-10-12T07:39:19;41.37;;;30.40;;
2213;SDS011;1113;42.018;23.986;2022-10-12T07:41:46;34.50;;;26.67;;
2213;SDS011;1113;42.018;23.986;2022-10-12T07:44:13;33.70;;;24.23;;
2213;SDS011;1113;42.018;23.986;2022-10-12T07:46:41;32.13;;;24.03;;
2213;SDS011;1113;42.018;23.986;2022-10-12T07:49:07;33.43;;;25.23;;
2213;SDS011;1113;42.018;23.986;2022-10-12T07:51:36;37.70;;;27.10;;
2213;SDS011;1113;42.018;23.986;2022-10-12T07:54:04;37.67;;;27.47;;
2213;SDS011;1113;42.018;23.986;2022-10-12T07:56:33;38.03;;;25.93;;
2213;SDS011;1113;42.018;23.986;2022-10-12T07:59:00;36.63;;;27.07;;
2213;SDS011;1113;42.018;23.986;2022-10-12T08:01:28;39.43;;;26.37;;
2213;SDS011;1113;42.018;23.986;2022-10-12T08:03:56;32.63;;;26.60;;
2213;SDS011;1113;42.018;23.986;2022-10-12T08:06:24;38.73;;;29.43;;
2213;SDS011;1113;42.018;23.986;2022-10-12T08:08:53;44.37;;;30.50;;
2213;SDS011;1113;42.018;23.986;2022-10-12T08:11:20;51.83;;;37.03;;
2213;SDS011;1113;42.018;23.986;2022-10-12T08:13:49;47.03;;;33.27;;
2213;SDS011;1113;42.018;23.986;2022-10-12T08:16:17;54.20;;;32.80;;
2213;SDS011;1113;42.018;23.986;2022-10-12T08:18:45;47.47;;;33.10;;
2213;SDS011;1113;42.018;23.986;2022-10-12T08:21:13;50.03;;;34.50;;
2213;SDS011;1113;42.018;23.986;2022-10-12T08:23:40;49.00;;;33.17;;
2213;SDS011;1113;42.018;23.986;2022-10-12T08:26:08;45.47;;;31.90;;
2213;SDS011;1113;42.018;23.986;2022-10-12T08:28:36;46.77;;;34.23;;
2213;SDS011;1113;42.018;23.986;2022-10-12T08:31:08;49.17;;;29.30;;
2213;SDS011;1113;42.018;23.986;2022-10-12T08:33:36;44.13;;;30.23;;
2213;SDS011;1113;42.018;23.986;2022-10-12T08:36:04;43.23;;;30.97;;
2213;SDS011;1113;42.018;23.986;2022-10-12T08:38:31;41.03;;;31.17;;
2213;SDS011;1113;42.018;23.986;2022-10-12T08:41:00;40.40;;;29.47;;
2213;SDS011;1113;42.018;23.986;2022-10-12T08:43:39;38.30;;;28.37;;
2213;SDS011;1113;42.018;23.986;2022-10-12T08:46:16;40.47;;;29.77;;
2213;SDS011;1113;42.018;23.986;2022-10-12T08:48:46;35.60;;;26.00;;
2213;SDS011;1113;42.018;23.986;2022-10-12T08:51:18;38.10;;;27.77;;
2213;SDS011;1113;42.018;23.986;2022-10-12T08:53:49;34.30;;;26.30;;
2213;SDS011;1113;42.018;23.986;2022-10-12T08:56:20;40.93;;;28.33;;
2213;SDS011;1113;42.018;23.986;2022-10-12T08:58:48;37.20;;;28.60;;
2213;SDS011;1113;42.018;23.986;2022-10-12T09:01:22;36.23;;;25.80;;
2213;SDS011;1113;42.018;23.986;2022-10-12T09:03:58;34.23;;;25.07;;
2213;SDS011;1113;42.018;23.986;2022-10-12T09:06:34;37.17;;;26.60;;
2213;SDS011;1113;42.018;23.986;2022-10-12T09:09:08;35.90;;;25.50;;
2213;SDS011;1113;42.018;23.986;2022-10-12T09:11:53;36.23;;;26.37;;
2213;SDS011;1113;42.018;23.986;2022-10-12T09:14:30;36.00;;;26.60;;
2213;SDS011;1113;42.018;23.986;2022-10-12T09:17:01;39.60;;;26.60;;
2213;SDS011;1113;42.018;23.986;2022-10-12T09:19:31;37.93;;;25.80;;
2213;SDS011;1113;42.018;23.986;2022-10-12T09:22:02;38.67;;;24.80;;
2213;SDS011;1113;42.018;23.986;2022-10-12T09:24:32;36.53;;;26.50;;
2213;SDS011;1113;42.018;23.986;2022-10-12T09:27:07;36.93;;;26.30;;
2213;SDS011;1113;42.018;23.986;2022-10-12T09:29:39;34.40;;;25.67;;
2213;SDS011;1113;42.018;23.986;2022-10-12T09:32:12;35.87;;;27.13;;
2213;SDS011;1113;42.018;23.986;2022-10-12T09:34:51;39.40;;;26.43;;
2213;SDS011;1113;42.018;23.986;2022-10-12T09:37:19;34.63;;;25.17;;
2213;SDS011;1113;42.018;23.986;2022-10-12T09:39:48;36.00;;;25.40;;
2213;SDS011;1113;42.018;23.986;2022-10-12T09:42:15;34.50;;;23.90;;
2213;SDS011;1113;42.018;23.986;2022-10-12T09:44:43;32.20;;;24.43;;
2213;SDS011;1113;42.018;23.986;2022-10-12T09:47:23;31.83;;;23.30;;
2213;SDS011;1113;42.018;23.986;2022-10-12T09:49:52;34.67;;;21.37;;
2213;SDS011;1113;42.018;23.986;2022-10-12T09:52:23;32.53;;;22.77;;
2213;SDS011;1113;42.018;23.986;2022-10-12T09:54:54;33.23;;;22.60;;
2213;SDS011;1113;42.018;23.986;2022-10-12T09:57:25;32.07;;;23.57;;
2213;SDS011;1113;42.018;23.986;2022-10-12T09:59:54;35.20;;;23.77;;
2213;SDS011;1113;42.018;23.986;2022-10-12T10:02:23;33.90;;;24.20;;
2213;SDS011;1113;42.018;23.986;2022-10-12T10:04:51;38.00;;;23.83;;
2213;SDS011;1113;42.018;23.986;2022-10-12T10:07:21;29.73;;;23.43;;
2213;SDS011;1113;42.018;23.986;2022-10-12T10:12:47;31.47;;;22.60;;
2213;SDS011;1113;42.018;23.986;2022-10-12T10:15:21;29.80;;;21.53;;
2213;SDS011;1113;42.018;23.986;2022-10-12T10:17:52;29.17;;;22.40;;
2213;SDS011;1113;42.018;23.986;2022-10-12T10:20:23;27.67;;;22.33;;
2213;SDS011;1113;42.018;23.986;2022-10-12T10:22:54;29.40;;;20.63;;
2213;SDS011;1113;42.018;23.986;2022-10-12T10:25:21;27.53;;;19.60;;
2213;SDS011;1113;42.018;23.986;2022-10-12T10:27:49;28.70;;;21.20;;
2213;SDS011;1113;42.018;23.986;2022-10-12T10:30:35;26.80;;;20.10;;
2213;SDS011;1113;42.018;23.986;2022-10-12T10:33:14;30.00;;;20.13;;
2213;SDS011;1113;42.018;23.986;2022-10-12T10:35:59;26.20;;;19.43;;
2213;SDS011;1113;42.018;23.986;2022-10-12T10:38:29;27.17;;;18.67;;
2213;SDS011;1113;42.018;23.986;2022-10-12T10:40:58;25.03;;;18.67;;
2213;SDS011;1113;42.018;23.986;2022-10-12T10:43:30;22.47;;;17.60;;
2213;SDS011;1113;42.018;23.986;2022-10-12T10:45:58;22.67;;;17.23;;
2213;SDS011;1113;42.018;23.986;2022-10-12T10:48:29;24.20;;;17.90;;
2213;SDS011;1113;42.018;23.986;2022-10-12T10:51:02;23.00;;;17.97;;
2213;SDS011;1113;42.018;23.986;2022-10-12T10:53:41;23.97;;;16.97;;
2213;SDS011;1113;42.018;23.986;2022-10-12T10:56:10;54.30;;;19.23;;
2213;SDS011;1113;42.018;23.986;2022-10-12T10:58:41;23.33;;;17.70;;
2213;SDS011;1113;42.018;23.986;2022-10-12T11:01:13;22.83;;;15.77;;
2213;SDS011;1113;42.018;23.986;2022-10-12T11:03:52;20.80;;;16.83;;
2213;SDS011;1113;42.018;23.986;2022-10-12T11:06:27;19.90;;;16.27;;
2213;SDS011;1113;42.018;23.986;2022-10-12T11:09:01;20.00;;;15.77;;
2213;SDS011;1113;42.018;23.986;2022-10-12T11:11:31;21.03;;;16.90;;
2213;SDS011;1113;42.018;23.986;2022-10-12T11:14:01;20.47;;;14.83;;
2213;SDS011;1113;42.018;23.986;2022-10-12T11:16:36;20.10;;;15.17;;
2213;SDS011;1113;42.018;23.986;2022-10-12T11:19:14;27.77;;;17.10;;
2213;SDS011;1113;42.018;23.986;2022-10-12T11:21:50;20.47;;;17.80;;
2213;SDS011;1113;42.018;23.986;2022-10-12T11:24:20;22.40;;;17.63;;
2213;SDS011;1113;42.018;23.986;2022-10-12T11:26:54;19.73;;;17.63;;
2213;SDS011;1113;42.018;23.986;2022-10-12T11:29:26;19.73;;;15.53;;
2213;SDS011;1113;42.018;23.986;2022-10-12T11:31:55;26.50;;;19.20;;
2213;SDS011;1113;42.018;23.986;2022-10-12T11:34:29;21.17;;;17.40;;
2213;SDS011;1113;42.018;23.986;2022-10-12T11:37:03;22.97;;;18.40;;
2213;SDS011;1113;42.018;23.986;2022-10-12T11:39:41;22.80;;;16.83;;
2213;SDS011;1113;42.018;23.986;2022-10-12T11:42:13;28.50;;;18.80;;
2213;SDS011;1113;42.018;23.986;2022-10-12T11:44:46;23.00;;;17.17;;
2213;SDS011;1113;42.018;23.986;2022-10-12T11:47:15;27.80;;;20.60;;
2213;SDS011;1113;42.018;23.986;2022-10-12T11:49:50;25.33;;;17.70;;
2213;SDS011;1113;42.018;23.986;2022-10-12T11:52:23;21.50;;;16.60;;
2213;SDS011;1113;42.018;23.986;2022-10-12T11:54:53;26.03;;;19.20;;
2213;SDS011;1113;42.018;23.986;2022-10-12T11:57:25;26.40;;;18.90;;
2213;SDS011;1113;42.018;23.986;2022-10-12T11:59:57;21.53;;;18.20;;
2213;SDS011;1113;42.018;23.986;2022-10-12T12:02:28;23.50;;;15.93;;
2213;SDS011;1113;42.018;23.986;2022-10-12T12:05:04;17.57;;;14.80;;
2213;SDS011;1113;42.018;23.986;2022-10-12T12:07:37;22.47;;;16.13;;
2213;SDS011;1113;42.018;23.986;2022-10-12T12:13:17;24.30;;;17.63;;
2213;SDS011;1113;42.018;23.986;2022-10-12T12:24:56;20.83;;;16.23;;
2213;SDS011;1113;42.018;23.986;2022-10-12T12:27:44;20.40;;;16.27;;
2213;SDS011;1113;42.018;23.986;2022-10-12T12:30:21;18.30;;;14.87;;
2213;SDS011;1113;42.018;23.986;2022-10-12T12:32:50;20.90;;;16.10;;
2213;SDS011;1113;42.018;23.986;2022-10-12T12:35:24;19.30;;;15.20;;
2213;SDS011;1113;42.018;23.986;2022-10-12T12:38:14;22.83;;;14.77;;
2213;SDS011;1113;42.018;23.986;2022-10-12T12:41:04;17.20;;;14.37;;
2213;SDS011;1113;42.018;23.986;2022-10-12T12:46:26;27.97;;;21.97;;
2213;SDS011;1113;42.018;23.986;2022-10-12T12:49:39;21.70;;;15.10;;
2213;SDS011;1113;42.018;23.986;2022-10-12T12:52:13;18.03;;;15.50;;
2213;SDS011;1113;42.018;23.986;2022-10-12T12:54:56;17.60;;;15.10;;
2213;SDS011;1113;42.018;23.986;2022-10-12T12:57:43;17.87;;;14.93;;
2213;SDS011;1113;42.018;23.986;2022-10-12T13:00:22;17.13;;;14.10;;
2213;SDS011;1113;42.018;23.986;2022-10-12T13:09:10;18.93;;;14.87;;
2213;SDS011;1113;42.018;23.986;2022-10-12T13:11:54;18.13;;;15.00;;
2213;SDS011;1113;42.018;23.986;2022-10-12T13:14:42;20.80;;;15.10;;
2213;SDS011;1113;42.018;23.986;2022-10-12T13:17:23;19.27;;;14.70;;
2213;SDS011;1113;42.018;23.986;2022-10-12T13:20:14;18.97;;;15.23;;
2213;SDS011;1113;42.018;23.986;2022-10-12T13:22:45;18.80;;;15.13;;
2213;SDS011;1113;42.018;23.986;2022-10-12T13:25:19;18.60;;;14.50;;
2213;SDS011;1113;42.018;23.986;2022-10-12T13:27:54;19.20;;;15.03;;
2213;SDS011;1113;42.018;23.986;2022-10-12T13:30:26;17.77;;;14.37;;
2213;SDS011;1113;42.018;23.986;2022-10-12T13:33:00;17.30;;;14.77;;
2213;SDS011;1113;42.018;23.986;2022-10-12T13:35:33;21.40;;;16.50;;
2213;SDS011;1113;42.018;23.986;2022-10-12T13:38:04;20.87;;;17.40;;
2213;SDS011;1113;42.018;23.986;2022-10-12T13:40:42;20.87;;;16.17;;
2213;SDS011;1113;42.018;23.986;2022-10-12T13:43:22;26.03;;;18.63;;
2213;SDS011;1113;42.018;23.986;2022-10-12T13:45:53;69.83;;;53.13;;
2213;SDS011;1113;42.018;23.986;2022-10-12T13:48:21;45.37;;;35.10;;
2213;SDS011;1113;42.018;23.986;2022-10-12T13:50:49;23.33;;;20.50;;
2213;SDS011;1113;42.018;23.986;2022-10-12T13:53:17;26.30;;;18.60;;
2213;SDS011;1113;42.018;23.986;2022-10-12T13:55:49;49.33;;;44.00;;
2213;SDS011;1113;42.018;23.986;2022-10-12T13:58:23;40.73;;;31.90;;
2213;SDS011;1113;42.018;23.986;2022-10-12T14:00:53;28.90;;;21.60;;
2213;SDS011;1113;42.018;23.986;2022-10-12T14:03:23;19.80;;;16.43;;
2213;SDS011;1113;42.018;23.986;2022-10-12T14:05:51;21.40;;;15.67;;
2213;SDS011;1113;42.018;23.986;2022-10-12T14:08:20;16.03;;;13.47;;
2213;SDS011;1113;42.018;23.986;2022-10-12T14:10:50;18.40;;;14.40;;
2213;SDS011;1113;42.018;23.986;2022-10-12T14:13:20;20.20;;;16.20;;
2213;SDS011;1113;42.018;23.986;2022-10-12T14:15:53;20.70;;;16.67;;
2213;SDS011;1113;42.018;23.986;2022-10-12T14:18:30;19.57;;;15.23;;
2213;SDS011;1113;42.018;23.986;2022-10-12T14:21:05;17.30;;;14.13;;
2213;SDS011;1113;42.018;23.986;2022-10-12T14:23:42;19.27;;;14.40;;
2213;SDS011;1113;42.018;23.986;2022-10-12T14:26:18;19.03;;;14.20;;
2213;SDS011;1113;42.018;23.986;2022-10-12T14:28:50;16.53;;;14.77;;
2213;SDS011;1113;42.018;23.986;2022-10-12T14:31:17;18.70;;;14.40;;
2213;SDS011;1113;42.018;23.986;2022-10-12T14:33:44;18.47;;;13.80;;
2213;SDS011;1113;42.018;23.986;2022-10-12T14:36:11;18.70;;;15.10;;
2213;SDS011;1113;42.018;23.986;2022-10-12T14:38:40;18.00;;;13.67;;
2213;SDS011;1113;42.018;23.986;2022-10-12T14:44:09;19.47;;;14.30;;
2213;SDS011;1113;42.018;23.986;2022-10-12T14:46:37;24.13;;;14.00;;
2213;SDS011;1113;42.018;23.986;2022-10-12T14:49:08;17.47;;;13.40;;
2213;SDS011;1113;42.018;23.986;2022-10-12T14:51:41;21.00;;;13.73;;
2213;SDS011;1113;42.018;23.986;2022-10-12T14:54:08;15.90;;;12.50;;
2213;SDS011;1113;42.018;23.986;2022-10-12T14:56:36;22.93;;;14.73;;
2213;SDS011;1113;42.018;23.986;2022-10-12T14:59:02;19.80;;;16.70;;
2213;SDS011;1113;42.018;23.986;2022-10-12T15:01:31;16.80;;;12.97;;
2213;SDS011;1113;42.018;23.986;2022-10-12T15:03:57;17.30;;;13.60;;
2213;SDS011;1113;42.018;23.986;2022-10-12T15:06:24;16.93;;;15.10;;
2213;SDS011;1113;42.018;23.986;2022-10-12T15:08:51;18.47;;;14.50;;
2213;SDS011;1113;42.018;23.986;2022-10-12T15:11:18;13.53;;;11.60;;
2213;SDS011;1113;42.018;23.986;2022-10-12T15:13:45;15.43;;;13.07;;
2213;SDS011;1113;42.018;23.986;2022-10-12T15:16:13;14.30;;;12.00;;
2213;SDS011;1113;42.018;23.986;2022-10-12T15:18:46;21.20;;;16.37;;
2213;SDS011;1113;42.018;23.986;2022-10-12T15:21:13;15.30;;;13.70;;
2213;SDS011;1113;42.018;23.986;2022-10-12T15:23:40;19.53;;;14.90;;